Time;durP1;ratioP1;P1;durP2;ratioP2;P2;SDS_P1;SDS_P2;PMS_P1;PMS_P2;Temp;Humidity;BMP_temperature;BMP_pressure;BME280_temperature;BME280_humidity;BME280_pressure;Samples;Min_cycle;Max_cycle;Signal;HPM_P1;HPM_P2
2022/04/03 01:42:04;;;;;;;6.53;3.03;;;-1.10;99.90;;;;;;6229772;22;20060;-68
2022/04/03 01:44:33;;;;;;;;;;;-1.10;99.90;;;;;;6219941;23;20028;-68
2022/04/03 01:47:01;;;;;;;5.13;3.00;;;-1.20;99.90;;;;;;6218268;22;19904;-69
2022/04/03 02:11:19;;;;;;;5.18;2.58;;;-1.20;99.90;;;;;;6218241;22;20028;-68
2022/04/03 02:13:45;;;;;;;6.35;2.85;;;-1.20;99.90;;;;;;6218058;23;20032;-69
2022/04/03 02:16:11;;;;;;;4.65;3.00;;;-1.30;99.90;;;;;;6193283;23;20016;-68
2022/04/03 02:18:40;;;;;;;5.43;2.78;;;-1.30;99.90;;;;;;6218609;23;20020;-68
2022/04/03 02:21:06;;;;;;;5.28;2.58;;;-1.30;99.90;;;;;;6193531;23;20027;-68
2022/04/03 02:23:32;;;;;;;3.47;2.72;;;-1.30;99.90;;;;;;6193527;23;20005;-68
2022/04/03 02:25:58;;;;;;;5.20;3.13;;;-1.30;99.90;;;;;;6193531;23;20013;-69
2022/04/03 02:28:24;;;;;;;5.03;2.83;;;-1.30;99.90;;;;;;6193405;23;20004;-68
2022/04/03 02:30:50;;;;;;;5.30;2.97;;;-1.30;99.90;;;;;;6218118;23;20008;-69
2022/04/03 03:49:37;;;;;;;6.55;3.63;;;-1.60;99.90;;;;;;6208309;22;20020;-69
2022/04/03 03:52:03;;;;;;;6.70;3.75;;;-1.60;99.90;;;;;;6245259;23;20028;-68
2022/04/03 03:54:31;;;;;;;6.45;4.00;;;-1.50;99.90;;;;;;6219471;23;20107;-68
2022/04/03 03:57:00;;;;;;;5.28;3.55;;;-1.40;99.90;;;;;;6194852;23;20020;-68
2022/04/03 03:59:26;;;;;;;6.85;3.90;;;-1.30;99.90;;;;;;6194189;23;20044;-68
2022/04/03 04:01:53;;;;;;;5.68;3.92;;;-1.20;99.90;;;;;;6194382;23;19997;-68
2022/04/03 04:04:19;;;;;;;8.27;4.68;;;-1.20;99.90;;;;;;6194129;23;20021;-68
2022/04/03 04:06:45;;;;;;;7.70;3.83;;;-1.10;99.90;;;;;;6194447;23;20056;-68
2022/04/03 04:09:12;;;;;;;7.57;4.13;;;-1.10;99.90;;;;;;6219441;22;20055;-68
2022/04/03 04:11:38;;;;;;;7.82;4.30;;;-1.10;99.90;;;;;;6194705;23;20000;-70
2022/04/03 04:14:04;;;;;;;5.22;4.03;;;-1.00;99.90;;;;;;6243909;23;20016;-68
2022/04/03 04:16:31;;;;;;;9.00;4.75;;;-0.90;99.90;;;;;;6219349;23;20069;-68
2022/04/03 04:18:59;;;;;;;6.43;4.03;;;-0.90;99.90;;;;;;6194441;23;20051;-69
2022/04/03 04:21:25;;;;;;;7.85;3.85;;;-0.80;99.90;;;;;;6194208;22;20039;-70
2022/04/03 04:23:51;;;;;;;8.20;4.28;;;-0.80;99.90;;;;;;6219494;23;20000;-68
2022/04/03 04:26:17;;;;;;;7.50;4.10;;;-0.80;99.90;;;;;;6219392;23;20017;-68
2022/04/03 04:28:47;;;;;;;6.03;4.32;;;-0.60;99.90;;;;;;6219055;23;20015;-68
2022/04/03 04:36:25;;;;;;;6.05;3.85;;;-0.60;99.90;;;;;;6227074;22;20011;-69
2022/04/03 04:38:51;;;;;;;6.88;3.95;;;-0.50;99.90;;;;;;6219026;22;20064;-68
2022/04/03 04:41:17;;;;;;;5.93;3.90;;;-0.50;99.90;;;;;;6194160;23;20006;-68
2022/04/03 05:01:56;;;;;;;6.43;4.07;;;-0.30;99.90;;;;;;6232796;22;20008;-68
2022/04/03 05:04:23;;;;;;;6.22;4.03;;;-0.20;99.90;;;;;;6218884;23;20017;-68
2022/04/03 05:06:50;;;;;;;6.63;4.32;;;-0.20;99.90;;;;;;6218885;23;20005;-69
2022/04/03 05:09:18;;;;;;;6.72;3.95;;;-0.20;99.90;;;;;;6194078;23;20011;-68
2022/04/03 05:11:46;;;;;;;8.13;4.32;;;-0.20;99.90;;;;;;6193979;23;20035;-68
2022/04/03 05:14:13;;;;;;;8.20;4.05;;;-0.10;99.90;;;;;;6218752;23;20004;-68
2022/04/03 05:16:40;;;;;;;5.53;4.00;;;-0.10;99.90;;;;;;6193975;23;20000;-68
2022/04/03 05:19:07;;;;;;;7.50;4.13;;;-0.10;99.90;;;;;;6182641;23;20021;-68
2022/04/03 05:21:33;;;;;;;5.63;3.75;;;-0.10;99.90;;;;;;6133542;23;20048;-68
2022/04/03 05:23:59;;;;;;;7.25;4.00;;;0.00;99.90;;;;;;6158222;23;19997;-68
2022/04/03 05:34:12;;;;;;;6.78;4.13;;;0.00;99.90;;;;;;6232625;23;20021;-68
2022/04/03 05:42:51;;;;;;;7.38;4.15;;;-0.10;99.90;;;;;;6214846;22;20025;-68
2022/04/03 05:45:19;;;;;;;6.03;4.18;;;-0.10;99.90;;;;;;6218678;23;20020;-69
2022/04/03 05:47:45;;;;;;;6.03;4.28;;;-0.10;99.90;;;;;;6218009;22;20019;-68
2022/04/03 05:50:12;;;;;;;6.50;4.50;;;-0.10;99.90;;;;;;6193830;23;20008;-68
2022/04/03 05:52:41;;;;;;;5.93;4.35;;;-0.10;99.90;;;;;;6218700;23;20012;-69
2022/04/03 05:55:08;;;;;;;7.20;4.75;;;-0.10;99.90;;;;;;6218182;23;20008;-68
2022/04/03 05:57:36;;;;;;;8.98;4.25;;;-0.10;99.90;;;;;;6193550;23;20008;-68
2022/04/03 06:00:06;;;;;;;10.40;4.80;;;0.00;99.90;;;;;;6218406;23;20004;-68
2022/04/03 06:10:21;;;;;;;8.45;5.00;;;0.00;99.90;;;;;;6242087;22;20072;-68
2022/04/03 06:13:03;;;;;;;7.18;5.25;;;0.00;99.90;;;;;;6243057;23;20024;-69
2022/04/03 06:15:36;;;;;;;9.35;5.50;;;0.10;99.90;;;;;;6218061;23;20008;-68
2022/04/03 06:18:10;;;;;;;8.45;5.47;;;0.10;99.90;;;;;;6193704;23;20028;-69
2022/04/03 06:20:36;;;;;;;9.43;5.18;;;0.10;99.90;;;;;;6217958;23;20020;-69
2022/04/03 06:23:09;;;;;;;8.95;4.93;;;0.20;99.90;;;;;;6193264;23;20016;-69
2022/04/03 06:25:35;;;;;;;8.93;5.43;;;0.20;99.90;;;;;;6218022;23;20051;-69
2022/04/03 06:28:01;;;;;;;9.65;5.25;;;0.30;99.90;;;;;;6193341;22;20040;-68
2022/04/03 06:40:57;;;;;;;9.10;4.68;;;0.60;99.90;;;;;;6245354;22;20080;-67
2022/04/03 06:43:29;;;;;;;5.78;4.63;;;0.70;99.90;;;;;;6220161;23;20027;-68
2022/04/03 06:45:56;;;;;;;6.18;4.20;;;0.80;99.90;;;;;;6195108;23;20016;-68
2022/04/03 06:48:23;;;;;;;9.60;4.57;;;0.90;99.90;;;;;;6219719;23;20012;-69
2022/04/03 06:50:49;;;;;;;6.82;4.40;;;1.10;99.90;;;;;;6171211;23;20076;-68
2022/04/03 06:53:15;;;;;;;8.95;4.47;;;1.20;99.90;;;;;;6194803;23;20016;-69
2022/04/03 06:55:41;;;;;;;6.30;4.57;;;1.30;99.90;;;;;;6195094;22;20005;-68
2022/04/03 06:58:07;;;;;;;5.90;3.40;;;1.40;99.90;;;;;;6219767;22;20005;-70
2022/04/03 07:00:34;;;;;;;7.80;4.38;;;1.50;99.90;;;;;;6219971;22;20004;-69
2022/04/03 07:03:01;;;;;;;5.50;4.00;;;1.60;99.90;;;;;;6169854;22;20052;-69
2022/04/03 07:05:30;;;;;;;5.38;4.00;;;1.70;99.90;;;;;;6194961;22;20020;-70
2022/04/03 07:07:56;;;;;;;6.43;4.22;;;1.80;99.90;;;;;;6219334;23;20001;-69
2022/04/03 07:10:24;;;;;;;7.82;3.75;;;1.90;99.90;;;;;;6213659;23;20023;-71
2022/04/03 17:51:34;;;;;;;4.18;1.90;;;6.50;99.90;;;;;;6209710;22;20024;-69
